Airport View

Enter AWOS ICAO identifier for current METAR.

ex. KFNL

KY19 192040Z AUTO 13010KT 10SM CLR 29/16 A2985 RMK AO2

19 Aug 2019 20:41

Frequency: 118.225

Phone: 701-663-0271

Other Area AWOS: KBIS - KD57 - KHZE - K7L2

TAF KBIS 191746Z 1918/2018 15009KT P6SM SKC FM200200 15009KT P6SM SCT250 FM200600 28005KT P6SM SCT250 FM201200 35011KT P6SM SCT150